Time;durP1;ratioP1;P1;durP2;ratioP2;P2;SDS_P1;SDS_P2;PMS_P1;PMS_P2;Temp;Humidity;BMP_temperature;BMP_pressure;BME280_temperature;BME280_humidity;BME280_pressure;Samples;Min_cycle;Max_cycle;Signal;HPM_P1;HPM_P2
2022/01/14 00:00:59;;;;;;;10.50;6.43;;;2.80;99.90;;;;;;4954212;28;20226;-75
2022/01/14 00:03:24;;;;;;;13.43;5.30;;;2.80;99.90;;;;;;4971266;28;20301;-75
2022/01/14 00:05:50;;;;;;;13.90;7.17;;;2.80;99.90;;;;;;4978240;28;20221;-75
2022/01/14 00:08:15;;;;;;;14.10;6.40;;;2.80;99.90;;;;;;4954166;28;20219;-75
2022/01/14 00:10:48;;;;;;;12.33;7.37;;;2.80;99.90;;;;;;4978807;28;20245;-75
2022/01/14 00:13:37;;;;;;;17.40;6.53;;;2.70;99.90;;;;;;4973602;28;20214;-75
2022/01/14 00:15:59;;;;;;;10.30;5.83;;;2.70;99.90;;;;;;4969384;28;20457;-75
2022/01/14 00:18:25;;;;;;;10.10;5.70;;;2.70;99.90;;;;;;4970057;28;20468;-75
2022/01/14 00:20:51;;;;;;;11.77;6.20;;;2.70;99.90;;;;;;4969815;28;20221;-73
2022/01/14 00:23:18;;;;;;;12.37;5.97;;;2.70;99.90;;;;;;4979062;28;20222;-75
2022/01/14 00:33:56;;;;;;;8.90;5.43;;;2.70;99.90;;;;;;4978915;28;20465;-72
2022/01/14 00:36:22;;;;;;;10.80;5.80;;;2.70;99.90;;;;;;4978165;28;20464;-74
2022/01/14 00:38:47;;;;;;;11.10;6.67;;;2.70;99.90;;;;;;4979323;28;20230;-74
2022/01/14 00:41:14;;;;;;;14.10;6.07;;;2.70;99.90;;;;;;4977760;28;20238;-75
2022/01/14 00:43:42;;;;;;;15.67;6.30;;;2.70;99.90;;;;;;4969951;28;20223;-75
2022/01/14 00:46:08;;;;;;;9.00;5.60;;;2.60;99.90;;;;;;4979687;28;20476;-75
2022/01/14 00:48:35;;;;;;;9.40;5.20;;;2.70;99.90;;;;;;4976190;28;20470;-75
2022/01/14 00:51:00;;;;;;;13.20;6.13;;;2.70;99.90;;;;;;4959672;28;20458;-75
2022/01/14 00:53:26;;;;;;;9.30;5.57;;;2.70;99.90;;;;;;4976255;28;20450;-75
2022/01/14 00:55:58;;;;;;;6.87;5.03;;;2.60;99.90;;;;;;4976108;28;20214;-75
2022/01/14 01:01:08;;;;;;;10.20;5.60;;;2.70;99.90;;;;;;4977965;28;20466;-75
2022/01/14 01:03:35;;;;;;;11.63;5.50;;;2.70;99.90;;;;;;4960394;28;20462;-75
2022/01/14 01:06:01;;;;;;;12.20;5.47;;;2.70;99.90;;;;;;4978662;28;20321;-74
2022/01/14 01:08:28;;;;;;;9.27;5.43;;;2.70;99.90;;;;;;4988729;28;20457;-75
2022/01/14 01:10:54;;;;;;;10.47;5.30;;;2.70;99.90;;;;;;4986026;28;20445;-75
2022/01/14 01:13:31;;;;;;;9.40;4.77;;;2.70;99.90;;;;;;4977297;28;20508;-74
2022/01/14 01:15:57;;;;;;;9.67;5.33;;;2.70;99.90;;;;;;4975938;28;20281;-75
2022/01/14 01:18:23;;;;;;;5.80;4.10;;;2.70;99.90;;;;;;4976966;28;20453;-74
2022/01/14 01:20:50;;;;;;;5.13;4.17;;;2.70;99.90;;;;;;4976185;28;20230;-76
2022/01/14 01:23:16;;;;;;;9.83;5.63;;;2.70;99.90;;;;;;4960022;28;20798;-76
2022/01/14 01:26:02;;;;;;;9.17;5.57;;;2.70;99.90;;;;;;4975237;28;20457;-75
2022/01/14 01:28:28;;;;;;;10.83;5.33;;;2.70;99.90;;;;;;4960175;28;20977;-75
2022/01/14 01:33:26;;;;;;;9.87;5.40;;;2.70;99.90;;;;;;4972874;28;20553;-75
2022/01/14 01:35:52;;;;;;;10.97;5.30;;;2.70;99.90;;;;;;4984929;28;20898;-74
2022/01/14 01:38:18;;;;;;;9.70;5.47;;;2.70;99.90;;;;;;4983530;28;20218;-73
2022/01/14 01:40:46;;;;;;;9.07;5.03;;;2.60;99.90;;;;;;4977397;28;20234;-75
2022/01/14 01:43:12;;;;;;;9.00;4.77;;;2.60;99.90;;;;;;4975362;28;20268;-76
2022/01/14 01:45:39;;;;;;;12.80;5.77;;;2.50;99.90;;;;;;4979483;28;20493;-75
2022/01/14 01:48:05;;;;;;;9.30;4.90;;;2.50;99.90;;;;;;4981217;28;20537;-75
2022/01/14 01:50:32;;;;;;;10.43;5.37;;;2.60;99.90;;;;;;4959425;28;20457;-75
2022/01/14 01:52:58;;;;;;;9.90;5.10;;;2.60;99.90;;;;;;4958784;28;20458;-74
2022/01/14 01:55:24;;;;;;;6.80;4.80;;;2.60;99.90;;;;;;4976082;28;21005;-75
2022/01/14 01:57:52;;;;;;;6.83;4.37;;;2.60;99.90;;;;;;4973496;28;20466;-74
2022/01/14 02:00:22;;;;;;;9.33;4.80;;;2.60;99.90;;;;;;4971989;28;20493;-75
2022/01/14 02:02:49;;;;;;;9.23;4.37;;;2.60;99.90;;;;;;4956947;28;20465;-76
2022/01/14 02:05:16;;;;;;;9.33;6.20;;;2.60;99.90;;;;;;5004899;28;20457;-75
2022/01/14 02:07:43;;;;;;;6.97;4.97;;;2.60;99.90;;;;;;4997018;28;20466;-75
2022/01/14 02:10:09;;;;;;;7.17;4.37;;;2.60;99.90;;;;;;4985291;28;20566;-75
2022/01/14 02:12:39;;;;;;;6.73;4.10;;;2.60;99.90;;;;;;4972391;28;20462;-75
2022/01/14 02:15:12;;;;;;;11.93;5.30;;;2.60;99.90;;;;;;4976356;28;20958;-75
2022/01/14 02:22:56;;;;;;;8.47;4.20;;;2.60;99.90;;;;;;4968841;28;20274;-74
2022/01/14 02:25:30;;;;;;;8.03;4.80;;;2.60;99.90;;;;;;4955030;28;20494;-75
2022/01/14 02:28:07;;;;;;;10.37;4.20;;;2.60;99.90;;;;;;4971350;28;20556;-75
2022/01/14 02:30:39;;;;;;;9.50;4.30;;;2.60;99.90;;;;;;4956394;28;20516;-75
2022/01/14 02:33:05;;;;;;;7.10;4.00;;;2.60;99.90;;;;;;4955755;28;20465;-75
2022/01/14 02:35:30;;;;;;;9.00;4.67;;;2.60;99.90;;;;;;4956053;28;20537;-74
2022/01/14 02:37:57;;;;;;;7.90;4.70;;;2.60;99.90;;;;;;4996529;28;20238;-75
2022/01/14 02:40:23;;;;;;;8.10;4.13;;;2.60;99.90;;;;;;4979065;28;20235;-76
2022/01/14 02:42:50;;;;;;;8.17;4.30;;;2.60;99.90;;;;;;4972740;28;20470;-74
2022/01/14 02:45:17;;;;;;;4.93;4.13;;;2.60;99.90;;;;;;4991086;28;20590;-75
2022/01/14 02:47:44;;;;;;;6.83;4.13;;;2.60;99.90;;;;;;4980803;28;20469;-75
2022/01/14 02:50:16;;;;;;;8.00;4.50;;;2.60;99.90;;;;;;4971962;28;20458;-76
2022/01/14 02:55:19;;;;;;;6.67;4.10;;;2.50;99.90;;;;;;4991498;28;21038;-76
2022/01/14 02:57:48;;;;;;;7.03;4.83;;;2.60;99.90;;;;;;4975141;28;20851;-75
2022/01/14 03:00:19;;;;;;;9.83;4.63;;;2.50;99.90;;;;;;4971555;28;20571;-76
2022/01/14 03:02:47;;;;;;;7.20;4.07;;;2.50;99.90;;;;;;4973251;28;20553;-73
2022/01/14 03:05:16;;;;;;;8.10;4.67;;;2.50;99.90;;;;;;4972293;28;20453;-75
2022/01/14 03:07:42;;;;;;;6.50;4.20;;;2.50;99.90;;;;;;4970937;28;20458;-74
2022/01/14 03:10:11;;;;;;;9.37;5.50;;;2.50;99.90;;;;;;4984167;28;20456;-75
2022/01/14 03:12:37;;;;;;;11.17;5.80;;;2.50;99.90;;;;;;4974983;28;20461;-75
2022/01/14 03:15:03;;;;;;;12.27;4.90;;;2.40;99.90;;;;;;4987188;28;20458;-75
2022/01/14 03:17:30;;;;;;;7.00;4.87;;;2.50;99.90;;;;;;4970883;28;20461;-74
2022/01/14 03:19:58;;;;;;;9.20;4.50;;;2.50;99.90;;;;;;4969889;28;20517;-75
2022/01/14 03:22:32;;;;;;;9.07;4.60;;;2.50;99.90;;;;;;4980742;28;20466;-75
2022/01/14 03:27:24;;;;;;;9.33;4.37;;;2.40;99.90;;;;;;4972453;28;21041;-74
2022/01/14 03:29:50;;;;;;;8.23;5.17;;;2.40;99.90;;;;;;4995337;28;20236;-76
2022/01/14 03:32:16;;;;;;;9.93;5.17;;;2.40;99.90;;;;;;4972605;28;20521;-73
2022/01/14 03:34:42;;;;;;;8.43;5.10;;;2.40;99.90;;;;;;4978318;28;20549;-75
2022/01/14 03:37:08;;;;;;;9.33;5.00;;;2.40;99.90;;;;;;4979697;28;20230;-75
2022/01/14 03:39:34;;;;;;;9.80;5.53;;;2.40;99.90;;;;;;4971174;28;20469;-76
2022/01/14 03:41:59;;;;;;;6.60;3.27;;;2.40;99.90;;;;;;4971906;28;20227;-75
2022/01/14 03:44:25;;;;;;;8.97;5.10;;;2.40;99.90;;;;;;4977149;28;20222;-75
2022/01/14 03:46:51;;;;;;;6.80;4.70;;;2.40;99.90;;;;;;4958161;28;20271;-73
2022/01/14 03:49:16;;;;;;;7.37;4.10;;;2.40;99.90;;;;;;4991734;28;20225;-75
2022/01/14 03:51:42;;;;;;;8.10;4.17;;;2.40;99.90;;;;;;4962786;28;20234;-75
2022/01/14 03:54:08;;;;;;;9.13;5.53;;;2.40;99.90;;;;;;4970330;28;20253;-75
2022/01/14 03:56:34;;;;;;;7.80;5.00;;;2.40;99.90;;;;;;4954959;28;20462;-75
2022/01/14 03:59:01;;;;;;;5.27;4.23;;;2.40;99.90;;;;;;4969565;28;20454;-75
2022/01/14 04:01:27;;;;;;;10.30;5.30;;;2.30;99.90;;;;;;4970661;28;20238;-75
2022/01/14 04:03:53;;;;;;;8.13;4.77;;;2.30;99.90;;;;;;4969921;28;20469;-74
2022/01/14 04:06:19;;;;;;;5.33;3.83;;;2.30;99.90;;;;;;4975909;28;20222;-74
2022/01/14 04:08:45;;;;;;;8.00;4.73;;;2.30;99.90;;;;;;4958025;28;20229;-76
2022/01/14 04:11:12;;;;;;;8.50;4.60;;;2.30;99.90;;;;;;4970040;28;20232;-76
2022/01/14 04:13:47;;;;;;;5.70;3.67;;;2.30;99.90;;;;;;4970658;28;20461;-75
2022/01/14 04:16:14;;;;;;;9.07;5.00;;;2.30;99.90;;;;;;4970611;28;20452;-75
2022/01/14 04:18:39;;;;;;;9.00;5.07;;;2.40;99.90;;;;;;4992623;28;20469;-75
2022/01/14 04:21:05;;;;;;;9.77;5.13;;;2.30;99.90;;;;;;4971744;28;20528;-75
2022/01/14 04:23:31;;;;;;;9.53;4.93;;;2.30;99.90;;;;;;4971811;28;20258;-76
2022/01/14 04:25:57;;;;;;;9.30;4.40;;;2.30;99.90;;;;;;4977439;28;20306;-75
2022/01/14 04:28:25;;;;;;;6.33;3.40;;;2.30;99.90;;;;;;4992301;28;20236;-75
2022/01/14 04:30:54;;;;;;;7.70;4.13;;;2.30;99.90;;;;;;4989565;28;20457;-75
2022/01/14 04:33:21;;;;;;;9.00;4.50;;;2.30;99.90;;;;;;4972492;28;20453;-75
2022/01/14 04:35:47;;;;;;;5.43;4.10;;;2.30;99.90;;;;;;4989237;28;20453;-74
2022/01/14 04:38:13;;;;;;;6.07;4.30;;;2.30;99.90;;;;;;4972884;28;20453;-75
2022/01/14 04:40:39;;;;;;;6.30;4.90;;;2.30;99.90;;;;;;4989648;28;20356;-75
2022/01/14 04:43:07;;;;;;;7.70;4.70;;;2.30;99.90;;;;;;4989823;28;20444;-75
2022/01/14 04:48:04;;;;;;;9.47;3.67;;;2.30;99.90;;;;;;5000235;28;20461;-75
2022/01/14 04:50:31;;;;;;;6.00;3.47;;;2.30;99.90;;;;;;4990655;28;20457;-75
2022/01/14 04:52:57;;;;;;;7.17;4.17;;;2.30;99.90;;;;;;4969369;28;20458;-74
2022/01/14 04:55:24;;;;;;;8.13;4.60;;;2.30;99.90;;;;;;4970434;28;20460;-75
2022/01/14 04:57:51;;;;;;;7.70;4.60;;;2.30;99.90;;;;;;4972167;28;20479;-74
2022/01/14 05:00:19;;;;;;;8.63;4.33;;;2.30;99.90;;;;;;4989173;28;20536;-75
2022/01/14 05:02:45;;;;;;;7.40;4.00;;;2.30;99.90;;;;;;4989522;28;20471;-74
2022/01/14 05:05:11;;;;;;;7.20;3.50;;;2.20;99.90;;;;;;4990299;28;20457;-75
2022/01/14 05:07:37;;;;;;;7.40;4.43;;;2.30;99.90;;;;;;4988484;28;20523;-75
2022/01/14 05:12:36;;;;;;;8.53;4.03;;;2.20;99.90;;;;;;4997367;28;20449;-75
2022/01/14 05:15:02;;;;;;;4.47;3.30;;;2.20;99.90;;;;;;4962418;28;20458;-75
2022/01/14 05:17:28;;;;;;;6.80;4.57;;;2.20;99.90;;;;;;4969032;28;20490;-75
2022/01/14 05:19:58;;;;;;;6.17;4.50;;;2.20;99.90;;;;;;4967984;28;20478;-74
2022/01/14 05:22:27;;;;;;;5.53;3.03;;;2.20;99.90;;;;;;4975655;28;20709;-75
2022/01/14 05:24:53;;;;;;;4.73;3.10;;;2.20;99.90;;;;;;4988116;28;20485;-75
2022/01/14 05:27:19;;;;;;;5.53;3.70;;;2.10;99.90;;;;;;4969731;28;20462;-74
2022/01/14 05:29:45;;;;;;;3.77;3.47;;;2.10;99.90;;;;;;4978813;28;20453;-75
2022/01/14 05:32:13;;;;;;;5.27;3.33;;;2.20;99.90;;;;;;4979557;28;20450;-75
2022/01/14 05:34:41;;;;;;;6.13;3.17;;;2.10;99.90;;;;;;4989707;28;20222;-74
2022/01/14 05:37:08;;;;;;;4.93;3.50;;;2.20;99.90;;;;;;4972717;28;20458;-75
2022/01/14 05:39:34;;;;;;;3.97;3.00;;;2.20;99.90;;;;;;4956675;28;20466;-75
2022/01/14 05:42:01;;;;;;;4.17;2.90;;;2.20;99.90;;;;;;4982096;28;20470;-73
2022/01/14 05:44:28;;;;;;;6.70;3.60;;;2.20;99.90;;;;;;4960489;28;20508;-75
2022/01/14 05:46:56;;;;;;;6.53;4.23;;;2.20;99.90;;;;;;4980388;28;20462;-76
2022/01/14 05:49:22;;;;;;;6.70;3.53;;;2.20;99.90;;;;;;4971809;28;20458;-75
2022/01/14 05:51:49;;;;;;;5.20;3.70;;;2.20;99.90;;;;;;4996243;28;20465;-75
2022/01/14 05:54:15;;;;;;;8.93;7.00;;;2.20;99.90;;;;;;4971264;28;20453;-74
2022/01/14 05:56:41;;;;;;;9.97;6.57;;;2.20;99.90;;;;;;4973608;28;20901;-75
2022/01/14 05:59:07;;;;;;;8.20;5.27;;;2.00;99.90;;;;;;4981592;28;20454;-75
2022/01/14 06:01:33;;;;;;;5.30;3.90;;;2.00;99.90;;;;;;4974036;28;20477;-75
2022/01/14 06:04:00;;;;;;;8.67;4.17;;;2.00;99.90;;;;;;4972100;28;20226;-74
2022/01/14 06:06:26;;;;;;;4.90;3.37;;;1.90;99.90;;;;;;4973852;28;20453;-75
2022/01/14 06:08:51;;;;;;;4.80;3.20;;;1.90;99.90;;;;;;4972320;28;20859;-73
2022/01/14 06:11:18;;;;;;;5.77;3.00;;;2.00;99.90;;;;;;4986981;28;20516;-75
2022/01/14 06:13:44;;;;;;;5.23;3.27;;;2.00;99.90;;;;;;4973800;28;20222;-75
2022/01/14 06:16:10;;;;;;;3.73;3.10;;;2.00;99.90;;;;;;4964229;28;20460;-75
2022/01/14 06:18:36;;;;;;;3.20;2.90;;;2.00;99.90;;;;;;4964316;28;20465;-75
2022/01/14 06:21:01;;;;;;;5.63;3.53;;;2.00;99.90;;;;;;4997494;28;20223;-73
2022/01/14 06:23:27;;;;;;;4.10;2.83;;;2.00;99.90;;;;;;4962454;28;20736;-74
2022/01/14 06:25:53;;;;;;;3.63;2.73;;;2.00;99.90;;;;;;4988221;28;20217;-75
2022/01/14 06:28:18;;;;;;;2.97;2.63;;;2.10;99.90;;;;;;4971022;28;20233;-74
2022/01/14 06:30:44;;;;;;;4.53;3.20;;;2.10;99.90;;;;;;4979298;28;20218;-75
2022/01/14 06:33:10;;;;;;;4.47;3.30;;;2.00;99.90;;;;;;4970661;28;20230;-75
2022/01/14 06:35:36;;;;;;;4.40;3.50;;;2.00;99.90;;;;;;4987374;28;20285;-75
2022/01/14 06:38:02;;;;;;;3.73;2.77;;;2.00;99.90;;;;;;4975832;28;20257;-74
2022/01/14 06:40:29;;;;;;;4.83;3.40;;;2.00;99.90;;;;;;4972030;28;20253;-75
2022/01/14 06:42:55;;;;;;;8.20;3.63;;;2.00;99.90;;;;;;4980152;28;20545;-75
2022/01/14 06:45:21;;;;;;;5.57;3.20;;;2.00;99.90;;;;;;4967810;28;20553;-74
2022/01/14 06:47:47;;;;;;;5.10;3.50;;;2.00;99.90;;;;;;4979250;28;20465;-76
2022/01/14 06:50:13;;;;;;;4.83;3.20;;;2.00;99.90;;;;;;4954810;28;20445;-75
2022/01/14 06:52:39;;;;;;;5.50;3.40;;;2.00;99.90;;;;;;4970705;28;20215;-74
2022/01/14 06:55:05;;;;;;;5.03;2.97;;;2.00;99.90;;;;;;4979364;28;20472;-75
2022/01/14 06:57:31;;;;;;;6.67;2.80;;;2.00;99.90;;;;;;4955415;28;20602;-75
2022/01/14 06:59:57;;;;;;;5.37;3.77;;;2.00;99.90;;;;;;4971962;28;20461;-74
2022/01/14 07:02:23;;;;;;;6.30;3.80;;;2.00;99.90;;;;;;4963588;28;20544;-75
2022/01/14 07:04:49;;;;;;;12.10;6.07;;;2.00;99.90;;;;;;4971391;28;20319;-75
2022/01/14 07:07:14;;;;;;;15.37;7.93;;;2.00;99.90;;;;;;4974408;28;20236;-75
2022/01/14 07:09:56;;;;;;;17.53;8.20;;;1.90;99.90;;;;;;4972539;28;20222;-75
2022/01/14 07:12:37;;;;;;;16.03;7.73;;;2.00;99.90;;;;;;4971701;28;20234;-75
2022/01/14 07:15:08;;;;;;;8.70;5.37;;;2.00;99.90;;;;;;4988146;28;20461;-75
2022/01/14 07:17:34;;;;;;;6.10;4.80;;;2.00;99.90;;;;;;4980559;28;20512;-75
2022/01/14 07:20:06;;;;;;;4.17;3.50;;;1.90;99.90;;;;;;4970250;28;20450;-75
2022/01/14 07:22:31;;;;;;;6.93;3.57;;;1.90;99.90;;;;;;4969687;28;20230;-76
2022/01/14 07:24:58;;;;;;;4.87;3.23;;;1.90;99.90;;;;;;4968635;28;20469;-77
2022/01/14 07:27:24;;;;;;;4.53;2.63;;;1.90;99.90;;;;;;4970403;28;20226;-76
2022/01/14 07:29:50;;;;;;;4.57;3.50;;;1.90;99.90;;;;;;4949836;28;20494;-76
2022/01/14 07:32:16;;;;;;;3.67;2.80;;;1.90;99.90;;;;;;4974372;28;20481;-76
2022/01/14 07:34:42;;;;;;;4.70;2.83;;;1.90;99.90;;;;;;4976705;28;20242;-75
2022/01/14 07:37:08;;;;;;;5.87;2.90;;;1.90;99.90;;;;;;4995260;28;20234;-76
2022/01/14 07:39:34;;;;;;;4.77;3.30;;;1.90;99.90;;;;;;4958856;28;20469;-76
2022/01/14 07:42:00;;;;;;;5.20;3.30;;;1.90;99.90;;;;;;4985369;28;20230;-76
2022/01/14 07:44:25;;;;;;;5.80;3.40;;;1.80;99.90;;;;;;4974814;28;20313;-76
2022/01/14 07:46:51;;;;;;;7.13;3.80;;;1.90;99.90;;;;;;4970379;28;20313;-76
2022/01/14 07:49:17;;;;;;;2.67;2.47;;;1.80;99.90;;;;;;4973958;28;20225;-76
2022/01/14 07:51:42;;;;;;;4.93;3.20;;;1.80;99.90;;;;;;4974452;28;20614;-75
2022/01/14 07:54:08;;;;;;;4.93;3.13;;;1.80;99.90;;;;;;4961239;28;20230;-76
2022/01/14 07:56:45;;;;;;;4.37;3.17;;;1.80;99.90;;;;;;4960175;28;20646;-76
2022/01/14 07:59:18;;;;;;;4.13;2.57;;;1.80;99.90;;;;;;4983344;28;20449;-75
2022/01/14 08:01:46;;;;;;;3.90;2.67;;;1.80;99.90;;;;;;4973319;28;20468;-77
2022/01/14 08:04:13;;;;;;;6.13;3.57;;;1.80;99.90;;;;;;4957371;28;20516;-75
2022/01/14 08:06:45;;;;;;;3.80;2.70;;;1.80;99.90;;;;;;4970850;28;20542;-76
2022/01/14 08:09:12;;;;;;;5.33;3.63;;;1.80;99.90;;;;;;4950314;28;20451;-74
2022/01/14 08:11:37;;;;;;;4.47;3.27;;;1.80;99.90;;;;;;4968762;28;20854;-75
2022/01/14 08:14:03;;;;;;;5.03;3.50;;;1.80;99.90;;;;;;4977020;28;20463;-76
2022/01/14 08:16:29;;;;;;;8.20;4.60;;;1.80;99.90;;;;;;4989494;28;20221;-77
2022/01/14 08:18:54;;;;;;;4.70;3.77;;;1.80;99.90;;;;;;4981133;28;20225;-75
2022/01/14 08:21:20;;;;;;;12.17;6.73;;;1.80;99.90;;;;;;4957792;28;20260;-75
2022/01/14 08:23:46;;;;;;;12.63;6.90;;;1.80;99.90;;;;;;4957494;28;20223;-74
2022/01/14 08:26:12;;;;;;;5.33;3.90;;;1.90;99.90;;;;;;4969664;28;20222;-74
2022/01/14 08:28:37;;;;;;;5.57;3.97;;;1.90;99.90;;;;;;4970288;28;20232;-76
2022/01/14 08:31:03;;;;;;;7.50;3.77;;;1.90;99.90;;;;;;4968886;28;20219;-75
2022/01/14 08:33:29;;;;;;;6.23;3.57;;;1.80;99.90;;;;;;4977906;28;20214;-75
2022/01/14 08:35:55;;;;;;;2.93;2.50;;;1.80;99.90;;;;;;4970313;28;20697;-76
2022/01/14 08:38:21;;;;;;;4.87;3.07;;;1.80;99.90;;;;;;4985047;28;20222;-75
2022/01/14 08:40:47;;;;;;;5.63;3.90;;;1.80;99.90;;;;;;4979631;28;20281;-75
2022/01/14 08:43:13;;;;;;;5.70;3.70;;;1.80;99.90;;;;;;4970465;28;20985;-74
2022/01/14 08:45:39;;;;;;;7.13;4.37;;;1.80;99.90;;;;;;4979182;28;20451;-76
2022/01/14 08:48:04;;;;;;;3.60;3.27;;;1.80;99.90;;;;;;4961457;28;20230;-75
2022/01/14 08:50:36;;;;;;;5.60;3.50;;;1.70;99.90;;;;;;4969783;28;20218;-75
2022/01/14 08:53:08;;;;;;;5.13;4.30;;;1.80;99.90;;;;;;4993469;28;20214;-75
2022/01/14 08:55:35;;;;;;;6.73;3.60;;;1.80;99.90;;;;;;4971347;28;20472;-74
2022/01/14 08:58:03;;;;;;;7.07;4.03;;;1.80;99.90;;;;;;4972267;28;20836;-75
2022/01/14 09:00:29;;;;;;;8.23;3.83;;;1.80;99.90;;;;;;4972494;28;20465;-75
2022/01/14 09:02:55;;;;;;;5.60;3.70;;;1.80;99.90;;;;;;4980047;28;20837;-76
2022/01/14 09:05:21;;;;;;;9.40;5.57;;;1.80;99.90;;;;;;4977569;28;20489;-76
2022/01/14 09:07:48;;;;;;;6.50;4.97;;;1.80;99.90;;;;;;4969528;28;20549;-76
2022/01/14 09:10:14;;;;;;;8.33;4.70;;;1.80;99.90;;;;;;4977903;28;20436;-76
2022/01/14 09:12:40;;;;;;;7.70;4.77;;;1.80;99.90;;;;;;4984086;28;20511;-75
2022/01/14 09:15:07;;;;;;;15.93;4.83;;;1.80;99.90;;;;;;4988985;28;20461;-75
2022/01/14 09:17:33;;;;;;;9.30;5.27;;;1.80;99.90;;;;;;4970853;28;20223;-75
2022/01/14 09:20:02;;;;;;;7.93;4.90;;;1.80;99.90;;;;;;4954904;28;20454;-75
2022/01/14 09:22:30;;;;;;;6.90;3.77;;;1.80;99.90;;;;;;4979264;28;20733;-75
2022/01/14 09:24:58;;;;;;;6.00;4.10;;;1.80;99.90;;;;;;4971747;28;20541;-75
2022/01/14 09:27:24;;;;;;;8.60;4.73;;;1.90;99.90;;;;;;4950108;28;20471;-74
2022/01/14 09:29:49;;;;;;;13.10;7.83;;;1.80;99.90;;;;;;4957550;28;20466;-75
2022/01/14 09:32:15;;;;;;;20.47;12.10;;;1.80;99.90;;;;;;4957073;28;20458;-75
2022/01/14 09:34:41;;;;;;;17.77;12.27;;;1.80;99.90;;;;;;4958820;28;20718;-74
2022/01/14 09:37:07;;;;;;;12.90;8.20;;;1.80;99.90;;;;;;4961996;28;20290;-74
2022/01/14 09:39:34;;;;;;;13.40;6.97;;;1.90;99.90;;;;;;4970225;28;20229;-74
2022/01/14 09:42:00;;;;;;;11.90;7.37;;;1.90;99.90;;;;;;4957947;28;20485;-74
2022/01/14 09:44:27;;;;;;;12.60;8.60;;;1.90;99.90;;;;;;4944121;28;20490;-76
2022/01/14 09:46:53;;;;;;;14.00;9.80;;;1.90;99.90;;;;;;4964793;28;20560;-75
2022/01/14 09:49:20;;;;;;;17.40;10.13;;;1.90;99.90;;;;;;4957820;28;20469;-73
2022/01/14 09:51:46;;;;;;;11.97;7.97;;;1.90;99.90;;;;;;4942882;28;20484;-74
2022/01/14 09:54:12;;;;;;;13.00;8.10;;;1.90;99.90;;;;;;4955209;28;20565;-75
2022/01/14 09:56:39;;;;;;;8.97;6.20;;;1.90;99.90;;;;;;4957489;28;20472;-75
2022/01/14 09:59:05;;;;;;;9.80;7.43;;;1.90;99.90;;;;;;4955646;28;20242;-75
2022/01/14 10:01:40;;;;;;;9.30;5.50;;;1.90;99.90;;;;;;4939520;28;21012;-74
2022/01/14 10:04:06;;;;;;;11.40;7.20;;;1.90;99.90;;;;;;4928380;28;20462;-75
2022/01/14 10:06:35;;;;;;;8.60;6.37;;;2.00;99.90;;;;;;4953682;28;20552;-74
2022/01/14 10:09:10;;;;;;;14.43;7.70;;;2.00;99.90;;;;;;4938510;28;20609;-74
2022/01/14 10:11:38;;;;;;;9.27;6.20;;;2.00;99.90;;;;;;4985204;28;20471;-74
2022/01/14 10:14:12;;;;;;;12.20;5.50;;;2.00;99.90;;;;;;4966772;28;20648;-74
2022/01/14 10:16:41;;;;;;;9.40;5.37;;;1.90;99.90;;;;;;4958942;28;20563;-75
2022/01/14 10:19:28;;;;;;;8.00;5.60;;;1.90;99.90;;;;;;4954048;28;20466;-74
2022/01/14 10:21:55;;;;;;;6.63;4.40;;;2.00;99.90;;;;;;4957900;28;20480;-74
2022/01/14 10:24:23;;;;;;;6.93;4.63;;;2.00;99.90;;;;;;4968324;28;20535;-74
2022/01/14 10:26:53;;;;;;;8.10;5.27;;;2.00;99.90;;;;;;4963473;28;20466;-74
2022/01/14 10:29:26;;;;;;;9.10;4.93;;;1.90;99.90;;;;;;4970812;28;20473;-75
2022/01/14 10:31:53;;;;;;;8.13;5.10;;;2.00;99.90;;;;;;4937798;28;20458;-74
2022/01/14 10:34:18;;;;;;;8.73;5.37;;;2.00;99.90;;;;;;4953843;28;20464;-73
2022/01/14 10:36:46;;;;;;;12.33;5.67;;;2.00;99.90;;;;;;4954584;28;20932;-75
2022/01/14 10:39:26;;;;;;;11.23;6.40;;;2.00;99.90;;;;;;4952666;28;20241;-74
2022/01/14 10:41:55;;;;;;;9.90;6.30;;;2.00;99.90;;;;;;4952530;28;20474;-74
2022/01/14 10:44:32;;;;;;;15.30;8.03;;;2.00;99.90;;;;;;4962876;28;20500;-75
2022/01/14 10:47:21;;;;;;;18.97;12.83;;;2.00;99.90;;;;;;4963178;28;20579;-75
2022/01/14 10:49:50;;;;;;;18.13;11.67;;;2.00;99.90;;;;;;4956468;28;20474;-74
2022/01/14 10:52:17;;;;;;;25.67;17.37;;;2.00;99.90;;;;;;4963432;28;20466;-75
2022/01/14 10:54:46;;;;;;;24.97;17.90;;;2.10;99.90;;;;;;4963264;28;20565;-75
2022/01/14 10:57:12;;;;;;;15.93;12.53;;;2.10;99.90;;;;;;4953192;28;20533;-73
2022/01/14 10:59:38;;;;;;;15.40;7.53;;;2.10;99.90;;;;;;4959428;28;20473;-75
2022/01/14 11:02:30;;;;;;;10.00;7.40;;;2.10;99.90;;;;;;4954772;28;20547;-74
2022/01/14 11:05:01;;;;;;;8.73;6.50;;;2.10;99.90;;;;;;4936967;28;20277;-75
2022/01/14 11:07:27;;;;;;;10.23;6.53;;;2.10;99.90;;;;;;4939381;28;20458;-75
2022/01/14 11:09:52;;;;;;;10.40;5.73;;;2.10;99.90;;;;;;4953450;28;21072;-74
2022/01/14 11:12:19;;;;;;;5.17;3.60;;;2.20;99.90;;;;;;4985607;28;20222;-75
2022/01/14 11:14:46;;;;;;;8.57;5.03;;;2.20;99.90;;;;;;4952932;28;20325;-75
2022/01/14 11:17:11;;;;;;;5.00;3.70;;;2.20;99.90;;;;;;4932562;28;20457;-75
2022/01/14 11:19:37;;;;;;;6.87;3.83;;;2.20;99.90;;;;;;4959635;28;20463;-74
2022/01/14 11:24:47;;;;;;;6.30;3.93;;;2.20;99.90;;;;;;4946959;28;20477;-75
2022/01/14 11:27:14;;;;;;;5.00;4.03;;;2.20;99.90;;;;;;4963450;28;20450;-75
2022/01/14 11:29:42;;;;;;;6.50;4.57;;;2.20;99.90;;;;;;4958716;28;20552;-75
2022/01/14 11:32:09;;;;;;;9.10;4.37;;;2.20;99.90;;;;;;4960642;28;20461;-75
2022/01/14 11:34:37;;;;;;;5.63;3.10;;;2.20;99.90;;;;;;4943171;28;20984;-74
2022/01/14 11:37:07;;;;;;;7.83;4.23;;;2.20;99.90;;;;;;4957404;28;20454;-74
2022/01/14 11:39:36;;;;;;;4.90;3.80;;;2.30;99.90;;;;;;4957921;28;20985;-74
2022/01/14 11:42:12;;;;;;;8.57;4.30;;;2.30;99.90;;;;;;4976995;28;20470;-74
2022/01/14 11:44:45;;;;;;;5.87;3.50;;;2.30;99.90;;;;;;4936276;28;20454;-75
2022/01/14 11:47:25;;;;;;;4.77;3.37;;;2.30;99.90;;;;;;4972629;28;20465;-75
2022/01/14 11:49:56;;;;;;;8.23;4.23;;;2.30;99.90;;;;;;4976363;28;20457;-74
2022/01/14 11:52:37;;;;;;;8.30;4.50;;;2.40;99.90;;;;;;4936902;28;20909;-74
2022/01/14 11:55:04;;;;;;;10.23;6.20;;;2.40;99.90;;;;;;4963074;28;20468;-74
2022/01/14 11:57:47;;;;;;;11.27;7.60;;;2.40;99.90;;;;;;4936606;28;20628;-75
2022/01/14 12:00:30;;;;;;;8.13;5.67;;;2.40;99.90;;;;;;4939302;28;20445;-75
2022/01/14 12:02:58;;;;;;;8.97;6.07;;;2.40;99.90;;;;;;4947427;28;20471;-75
2022/01/14 12:05:30;;;;;;;8.47;6.50;;;2.40;99.90;;;;;;4946289;28;20453;-74
2022/01/14 12:08:05;;;;;;;7.40;5.23;;;2.50;99.90;;;;;;4964751;28;20456;-74
2022/01/14 12:10:41;;;;;;;13.40;5.00;;;2.50;99.90;;;;;;4966154;28;20533;-73
2022/01/14 12:13:29;;;;;;;5.97;4.53;;;2.50;99.90;;;;;;4974387;28;20898;-74
2022/01/14 12:15:59;;;;;;;5.77;4.43;;;2.50;99.90;;;;;;4974139;28;20492;-73
2022/01/14 12:18:59;;;;;;;9.27;4.93;;;2.50;99.90;;;;;;4951045;28;20575;-74
2022/01/14 12:21:50;;;;;;;8.50;5.40;;;2.50;99.90;;;;;;4953567;28;20485;-75
2022/01/14 12:27:12;;;;;;;6.97;4.50;;;2.60;99.90;;;;;;4953211;28;20469;-73
2022/01/14 12:29:45;;;;;;;10.80;5.27;;;2.60;99.90;;;;;;4969135;28;20783;-75
2022/01/14 12:32:20;;;;;;;9.37;5.90;;;2.60;99.90;;;;;;4935631;28;20446;-73
2022/01/14 12:34:55;;;;;;;11.77;5.57;;;2.60;99.90;;;;;;4961188;28;20557;-73
2022/01/14 12:37:26;;;;;;;9.80;5.60;;;2.70;99.90;;;;;;4959693;28;20460;-75
2022/01/14 12:39:53;;;;;;;9.70;5.73;;;2.60;99.90;;;;;;4947043;28;20548;-74
2022/01/14 12:42:21;;;;;;;7.17;5.33;;;2.70;99.90;;;;;;4956756;28;20466;-74
2022/01/14 12:44:50;;;;;;;10.43;4.87;;;2.70;99.90;;;;;;4963920;28;20923;-75
2022/01/14 12:47:31;;;;;;;5.90;5.17;;;2.70;99.90;;;;;;4936084;28;21061;-74
2022/01/14 12:50:02;;;;;;;12.20;5.93;;;2.70;99.90;;;;;;4951574;28;20468;-76
2022/01/14 12:52:38;;;;;;;7.00;5.20;;;2.70;99.90;;;;;;4953705;28;20458;-75
2022/01/14 12:55:08;;;;;;;9.60;5.10;;;2.70;99.90;;;;;;4951637;28;21004;-74
2022/01/14 12:57:35;;;;;;;11.30;6.23;;;2.70;99.90;;;;;;4951926;28;20955;-74
2022/01/14 13:00:03;;;;;;;11.77;6.07;;;2.70;99.90;;;;;;4966473;28;20516;-74
2022/01/14 13:02:30;;;;;;;9.10;5.87;;;2.70;99.90;;;;;;4953524;28;20462;-73
2022/01/14 13:05:03;;;;;;;6.77;4.57;;;2.80;99.90;;;;;;4950988;28;20462;-74
2022/01/14 13:07:29;;;;;;;9.17;5.93;;;2.80;99.90;;;;;;4943338;28;20474;-74
2022/01/14 13:09:56;;;;;;;11.27;6.17;;;2.80;99.90;;;;;;4975810;28;20512;-73
2022/01/14 13:12:25;;;;;;;11.20;5.90;;;2.80;99.90;;;;;;4940661;28;20464;-73
2022/01/14 13:15:03;;;;;;;10.40;5.63;;;2.80;99.90;;;;;;4943716;28;20473;-74
2022/01/14 13:17:35;;;;;;;8.47;5.20;;;2.80;99.90;;;;;;4971354;28;20607;-74
2022/01/14 13:20:12;;;;;;;8.80;6.03;;;2.80;99.90;;;;;;4954427;28;20462;-76
2022/01/14 13:22:40;;;;;;;11.00;6.13;;;2.90;99.90;;;;;;4954121;28;20485;-75
2022/01/14 13:25:09;;;;;;;16.77;8.10;;;2.90;99.90;;;;;;4953512;28;20458;-76
2022/01/14 13:27:38;;;;;;;20.43;12.50;;;2.90;99.90;;;;;;4936212;28;20473;-77
2022/01/14 13:30:17;;;;;;;17.43;9.47;;;2.90;99.90;;;;;;4936746;28;21140;-75
2022/01/14 13:32:44;;;;;;;9.47;6.47;;;2.90;99.90;;;;;;4952426;28;20469;-77
2022/01/14 13:35:11;;;;;;;7.80;5.70;;;2.90;99.90;;;;;;4961846;28;20525;-75